createdAt,value
2019-04-05T00:02:17.932Z,6.87
2019-04-05T00:04:46.357Z,6.60
2019-04-05T00:07:14.788Z,6.90
2019-04-05T00:09:43.210Z,6.10
2019-04-05T00:12:11.700Z,6.33
2019-04-05T00:14:39.797Z,6.57
2019-04-05T00:17:07.883Z,6.43
2019-04-05T00:19:35.995Z,5.70
2019-04-05T00:22:04.136Z,6.10
2019-04-05T00:24:32.246Z,6.03
2019-04-05T00:27:00.621Z,5.20
2019-04-05T00:29:29.055Z,5.30
2019-04-05T00:31:57.473Z,5.50
2019-04-05T00:34:25.573Z,5.17
2019-04-05T00:36:53.996Z,5.80
2019-04-05T00:39:22.081Z,5.60
2019-04-05T00:41:50.785Z,5.00
2019-04-05T00:44:18.891Z,5.47
2019-04-05T00:46:46.971Z,5.10
2019-04-05T00:49:15.068Z,4.97
2019-04-05T00:51:43.141Z,4.80
2019-04-05T00:54:11.237Z,5.43
2019-04-05T00:56:39.386Z,5.77
2019-04-05T00:59:07.797Z,5.50
2019-04-05T01:01:36.288Z,6.27
2019-04-05T01:04:04.707Z,5.57
2019-04-05T01:06:33.132Z,5.67
2019-04-05T01:09:01.234Z,5.77
2019-04-05T01:11:29.315Z,6.23
2019-04-05T01:13:58.191Z,6.27
2019-04-05T01:16:26.686Z,5.87
2019-04-05T01:18:55.112Z,5.93
2019-04-05T01:21:24.741Z,7.03
2019-04-05T01:23:56.114Z,5.47
2019-04-05T01:26:25.385Z,5.90
2019-04-05T01:28:53.489Z,7.27
2019-04-05T01:31:21.594Z,5.73
2019-04-05T01:33:49.748Z,5.63
2019-04-05T01:36:18.199Z,5.47
2019-04-05T01:38:46.614Z,5.53
2019-04-05T01:41:14.771Z,6.20
2019-04-05T01:43:43.189Z,5.80
2019-04-05T01:46:11.692Z,6.10
2019-04-05T01:48:40.106Z,5.23
2019-04-05T01:51:08.211Z,6.40
2019-04-05T01:53:36.307Z,5.27
2019-04-05T01:56:04.545Z,5.50
2019-04-05T01:58:32.961Z,5.90
2019-04-05T02:01:01.055Z,6.77
2019-04-05T02:03:29.470Z,5.67
2019-04-05T02:05:57.580Z,6.23
2019-04-05T02:08:26.006Z,6.70
2019-04-05T02:10:54.875Z,6.03
2019-04-05T02:13:22.958Z,6.17
2019-04-05T02:15:51.089Z,6.23
2019-04-05T02:18:19.512Z,6.00
2019-04-05T02:20:47.980Z,6.73
2019-04-05T02:23:16.432Z,5.63
2019-04-05T02:25:44.949Z,6.23
2019-04-05T02:28:13.047Z,7.20
2019-04-05T02:30:41.221Z,6.23
2019-04-05T02:33:09.310Z,6.57
2019-04-05T02:35:39.087Z,6.33
2019-04-05T02:38:07.217Z,7.30
2019-04-05T02:40:36.294Z,6.87
2019-04-05T02:43:07.051Z,6.37
2019-04-05T02:45:36.685Z,8.13
2019-04-05T02:48:06.320Z,6.17
2019-04-05T02:50:37.967Z,6.43
2019-04-05T02:53:09.231Z,5.70
2019-04-05T02:55:37.703Z,6.43
2019-04-05T02:58:05.957Z,6.33
2019-04-05T03:00:34.656Z,6.07
2019-04-05T03:03:05.704Z,10.20
2019-04-05T03:05:34.175Z,6.10
2019-04-05T03:08:02.325Z,6.40
2019-04-05T03:10:57.877Z,6.30
2019-04-05T03:13:27.508Z,6.23
2019-04-05T03:15:59.047Z,6.43
2019-04-05T03:18:27.709Z,6.47
2019-04-05T03:20:59.456Z,6.83
2019-04-05T03:23:28.900Z,6.60
2019-04-05T03:26:00.396Z,7.50
2019-04-05T03:28:29.093Z,7.00
2019-04-05T03:30:57.705Z,7.17
2019-04-05T03:33:26.212Z,6.80
2019-04-05T03:35:54.418Z,7.10
2019-04-05T03:38:23.073Z,6.90
2019-04-05T03:40:51.569Z,6.93
2019-04-05T03:43:20.150Z,7.13
2019-04-05T03:45:48.945Z,7.97
2019-04-05T03:48:17.203Z,6.70
2019-04-05T03:50:45.557Z,6.57
2019-04-05T03:53:14.576Z,6.63
2019-04-05T03:55:43.038Z,6.83
2019-04-05T03:58:11.203Z,7.80
2019-04-05T04:00:39.330Z,6.67
2019-04-05T04:03:07.805Z,6.93
2019-04-05T04:05:36.236Z,6.80
2019-04-05T04:08:05.098Z,6.93
2019-04-05T04:10:33.916Z,7.07
2019-04-05T04:13:02.635Z,7.10
2019-04-05T04:15:30.789Z,9.20
2019-04-05T04:17:58.961Z,7.93
2019-04-05T04:20:54.001Z,7.70
2019-04-05T04:23:25.551Z,7.93
2019-04-05T04:25:53.908Z,7.90
2019-04-05T04:28:22.448Z,8.17
2019-04-05T04:30:51.206Z,8.00
2019-04-05T04:33:19.289Z,8.87
2019-04-05T04:35:47.775Z,9.77
2019-04-05T04:38:16.434Z,9.37
2019-04-05T04:40:45.783Z,8.80
2019-04-05T04:43:14.965Z,9.60
2019-04-05T04:45:43.716Z,9.37
2019-04-05T04:48:12.441Z,8.97
2019-04-05T04:50:41.181Z,9.57
2019-04-05T04:53:09.944Z,8.67
2019-04-05T04:55:38.428Z,12.10
2019-04-05T04:58:07.286Z,9.37
2019-04-05T05:00:36.061Z,9.53
2019-04-05T05:03:04.935Z,10.07
2019-04-05T05:05:33.688Z,9.20
2019-04-05T05:08:01.836Z,9.13
2019-04-05T05:10:30.513Z,9.50
2019-04-05T05:12:59.000Z,9.30
2019-04-05T05:15:27.569Z,9.80
2019-04-05T05:17:58.846Z,10.47
2019-04-05T05:20:25.920Z,9.73
2019-04-05T05:22:54.021Z,10.80
2019-04-05T05:25:22.677Z,10.30
2019-04-05T05:27:51.235Z,10.30
2019-04-05T05:30:19.785Z,9.43
2019-04-05T05:32:48.265Z,10.37
2019-04-05T05:35:16.709Z,10.23
2019-04-05T05:37:45.132Z,10.33
2019-04-05T05:40:13.993Z,10.70
2019-04-05T05:42:42.757Z,11.80
2019-04-05T05:45:11.965Z,12.27
2019-04-05T05:47:51.035Z,14.60
2019-04-05T05:50:10.328Z,12.40
2019-04-05T05:52:39.002Z,13.80
2019-04-05T05:55:07.488Z,12.63
2019-04-05T05:57:35.945Z,13.20
2019-04-05T06:00:05.564Z,11.63
2019-04-05T06:02:33.995Z,11.83
2019-04-05T06:05:02.405Z,13.20
2019-04-05T06:07:30.829Z,13.17
2019-04-05T06:09:59.162Z,11.60
2019-04-05T06:12:27.588Z,12.63
2019-04-05T06:14:56.010Z,12.23
2019-04-05T06:17:24.445Z,12.27
2019-04-05T06:19:52.903Z,13.57
2019-04-05T06:22:21.369Z,10.73
2019-04-05T06:24:49.794Z,11.83
2019-04-05T06:27:18.220Z,12.17
2019-04-05T06:29:46.646Z,13.67
2019-04-05T06:32:14.748Z,11.57
2019-04-05T06:34:43.166Z,14.97
2019-04-05T06:37:11.569Z,12.10
2019-04-05T06:39:40.007Z,11.73
2019-04-05T06:42:08.416Z,10.43
2019-04-05T06:44:36.846Z,9.87
2019-04-05T06:47:05.252Z,10.47
2019-04-05T06:49:33.687Z,11.73
2019-04-05T06:52:02.096Z,12.27
2019-04-05T06:54:30.519Z,9.77
2019-04-05T06:56:58.936Z,10.40
2019-04-05T06:59:27.364Z,10.77
2019-04-05T07:01:55.772Z,9.53
2019-04-05T07:04:24.199Z,8.50
2019-04-05T07:06:52.600Z,10.87
2019-04-05T07:09:21.026Z,10.93
2019-04-05T07:11:49.107Z,9.57
2019-04-05T07:14:17.525Z,9.73
2019-04-05T07:16:46.281Z,9.97
2019-04-05T07:19:14.696Z,11.30
2019-04-05T07:21:43.109Z,10.70
2019-04-05T07:24:11.209Z,12.37
2019-04-05T07:26:39.625Z,11.73
2019-04-05T07:29:08.074Z,11.73
2019-04-05T07:31:36.158Z,11.10
2019-04-05T07:34:05.439Z,11.03
2019-04-05T07:36:33.840Z,11.60
2019-04-05T07:39:02.606Z,12.90
2019-04-05T07:41:31.914Z,12.93
2019-04-05T07:44:00.532Z,13.43
2019-04-05T07:46:28.616Z,14.63
2019-04-05T07:48:57.065Z,12.70
2019-04-05T07:51:25.476Z,14.83
2019-04-05T07:53:53.911Z,13.90
2019-04-05T07:56:22.327Z,12.73
2019-04-05T07:58:50.667Z,12.53
2019-04-05T08:01:19.093Z,12.43
2019-04-05T08:03:47.193Z,13.50
2019-04-05T08:06:15.860Z,11.37
2019-04-05T08:08:56.681Z,13.37
2019-04-05T08:11:26.536Z,12.70
2019-04-05T08:13:57.876Z,13.07
2019-04-05T08:16:26.296Z,13.67
2019-04-05T08:18:58.046Z,11.77
2019-04-05T08:21:24.857Z,14.03
2019-04-05T08:23:53.279Z,11.63
2019-04-05T08:26:21.716Z,15.17
2019-04-05T08:28:50.125Z,10.80
2019-04-05T08:31:18.552Z,12.37
2019-04-05T08:33:46.964Z,13.63
2019-04-05T08:36:15.406Z,12.47
2019-04-05T08:38:43.809Z,11.07
2019-04-05T08:41:12.245Z,10.60
2019-04-05T08:44:00.066Z,14.27
2019-04-05T08:46:28.164Z,16.73
2019-04-05T08:48:56.314Z,15.20
2019-04-05T08:51:24.411Z,16.47
2019-04-05T08:53:52.501Z,17.67
2019-04-05T08:56:20.598Z,18.27
2019-04-05T08:58:48.681Z,17.33
2019-04-05T09:01:16.783Z,17.50
2019-04-05T09:03:45.190Z,16.43
2019-04-05T09:06:13.696Z,16.30
2019-04-05T09:08:42.105Z,18.63
2019-04-05T09:11:10.533Z,18.73
2019-04-05T09:13:38.625Z,17.67
2019-04-05T09:16:06.720Z,18.50
2019-04-05T09:18:34.810Z,17.97
2019-04-05T09:21:02.918Z,15.63
2019-04-05T09:23:31.009Z,22.53
2019-04-05T09:25:59.113Z,17.60
2019-04-05T09:28:27.204Z,18.50
2019-04-05T09:30:55.313Z,17.23
2019-04-05T09:33:23.460Z,18.10
2019-04-05T09:35:51.628Z,16.67
2019-04-05T09:38:20.063Z,18.03
2019-04-05T09:40:48.495Z,18.13
2019-04-05T09:43:16.921Z,18.07
2019-04-05T09:45:45.102Z,15.43
2019-04-05T09:48:13.189Z,17.67
2019-04-05T09:50:41.283Z,16.70
2019-04-05T09:53:09.698Z,17.77
2019-04-05T09:55:37.788Z,18.83
2019-04-05T09:58:05.876Z,21.10
2019-04-05T10:00:33.976Z,17.40
2019-04-05T10:03:02.063Z,16.67
2019-04-05T10:05:30.232Z,16.53
2019-04-05T10:07:58.316Z,16.53
2019-04-05T10:10:26.746Z,17.97
2019-04-05T10:12:55.164Z,19.50
2019-04-05T10:15:23.593Z,15.87
2019-04-05T10:17:52.023Z,18.77
2019-04-05T10:20:20.101Z,15.37
2019-04-05T10:22:48.192Z,16.50
2019-04-05T10:25:16.274Z,19.50
2019-04-05T10:27:44.387Z,38.80
2019-04-05T10:30:13.207Z,18.60
2019-04-05T10:32:41.939Z,16.73
2019-04-05T10:35:10.365Z,15.83
2019-04-05T10:37:38.792Z,17.23
2019-04-05T10:40:07.520Z,20.43
2019-04-05T10:42:37.290Z,19.10
2019-04-05T10:45:08.456Z,14.27
2019-04-05T10:47:36.554Z,13.90
2019-04-05T10:50:08.495Z,17.00
2019-04-05T10:52:37.301Z,14.33
2019-04-05T10:55:05.780Z,14.20
2019-04-05T10:57:34.240Z,17.63
2019-04-05T11:00:02.930Z,15.83
2019-04-05T11:02:31.363Z,19.60
2019-04-05T11:04:59.446Z,18.03
2019-04-05T11:07:27.849Z,15.77
2019-04-05T11:09:56.257Z,15.30
2019-04-05T11:12:24.685Z,14.10
2019-04-05T11:14:52.794Z,15.20
2019-04-05T11:17:20.922Z,18.93
2019-04-05T11:19:48.999Z,17.47
2019-04-05T11:22:20.092Z,16.67
2019-04-05T11:24:47.235Z,12.40
2019-04-05T11:27:15.672Z,13.70
2019-04-05T11:29:43.754Z,12.30
2019-04-05T11:32:11.862Z,12.40
2019-04-05T11:34:40.009Z,14.03
2019-04-05T11:37:08.114Z,14.27
2019-04-05T11:39:36.473Z,18.17
2019-04-05T11:42:04.603Z,14.40
2019-04-05T11:44:32.963Z,16.10
2019-04-05T11:47:01.133Z,16.37
2019-04-05T11:49:30.255Z,14.07
2019-04-05T11:51:58.367Z,13.83
2019-04-05T11:54:26.785Z,16.47
2019-04-05T11:56:54.889Z,14.03
2019-04-05T11:59:23.277Z,15.10
2019-04-05T12:01:56.199Z,15.53
2019-04-05T12:04:24.669Z,14.90
2019-04-05T12:06:53.101Z,16.93
2019-04-05T12:09:21.172Z,16.77
2019-04-05T12:11:49.278Z,15.73
2019-04-05T12:14:29.707Z,15.73
2019-04-05T12:16:47.176Z,18.37
2019-04-05T12:19:15.288Z,16.27
2019-04-05T12:21:43.378Z,17.13
2019-04-05T12:24:11.468Z,19.57
2019-04-05T12:26:42.547Z,14.37
2019-04-05T12:29:09.688Z,15.80
2019-04-05T12:31:38.049Z,12.77
2019-04-05T12:34:06.149Z,15.33
2019-04-05T12:36:34.590Z,14.83
2019-04-05T12:39:04.752Z,14.93
2019-04-05T12:41:33.285Z,13.27
2019-04-05T12:44:01.385Z,13.23
2019-04-05T12:46:29.805Z,11.47
2019-04-05T12:48:57.895Z,12.67
2019-04-05T12:51:26.004Z,13.67
2019-04-05T12:53:56.535Z,15.67
2019-04-05T12:56:24.402Z,14.63
2019-04-05T12:58:56.044Z,17.00
2019-04-05T13:01:23.852Z,19.17
2019-04-05T13:03:52.275Z,18.07
2019-04-05T13:06:21.758Z,18.57
2019-04-05T13:08:51.505Z,19.53
2019-04-05T13:11:20.074Z,15.03
2019-04-05T13:13:48.505Z,15.10
2019-04-05T13:16:16.604Z,14.60
2019-04-05T13:18:44.696Z,15.40
2019-04-05T13:21:15.019Z,15.30
2019-04-05T13:23:42.596Z,15.60
2019-04-05T13:26:12.253Z,14.87
2019-04-05T13:28:40.657Z,14.23
2019-04-05T13:31:08.749Z,13.83
2019-04-05T13:33:36.841Z,14.13
2019-04-05T13:36:08.179Z,14.60
2019-04-05T13:38:35.221Z,12.17
2019-04-05T13:41:03.305Z,13.47
2019-04-05T13:43:31.875Z,12.90
2019-04-05T13:46:00.879Z,14.20
2019-04-05T13:48:28.965Z,11.77
2019-04-05T13:50:57.045Z,12.13
2019-04-05T13:53:25.150Z,12.53
2019-04-05T13:55:53.237Z,11.67
2019-04-05T13:58:21.354Z,12.07
2019-04-05T14:00:49.833Z,12.63
2019-04-05T14:03:18.637Z,14.60
2019-04-05T14:05:49.971Z,14.83
2019-04-05T14:08:17.746Z,13.33
2019-04-05T14:10:45.896Z,13.93
2019-04-05T14:13:14.037Z,13.77
2019-04-05T14:15:42.937Z,12.37
2019-04-05T14:18:14.501Z,13.67
2019-04-05T14:20:41.017Z,12.97
2019-04-05T14:23:09.144Z,12.90
2019-04-05T14:25:37.231Z,13.23
2019-04-05T14:28:05.674Z,12.27
2019-04-05T14:30:34.104Z,12.73
2019-04-05T14:33:02.989Z,13.93
2019-04-05T14:35:31.424Z,14.03
2019-04-05T14:37:59.505Z,11.47
2019-04-05T14:40:29.362Z,14.53
2019-04-05T14:42:58.354Z,14.60
2019-04-05T14:45:27.058Z,15.60
2019-04-05T14:47:57.621Z,16.00
2019-04-05T14:50:24.994Z,16.17
2019-04-05T14:52:53.342Z,16.60
2019-04-05T14:55:21.441Z,18.43
2019-04-05T14:57:49.532Z,16.10
2019-04-05T15:00:18.477Z,16.10
2019-04-05T15:02:46.573Z,16.83
2019-04-05T15:05:15.336Z,16.10
2019-04-05T15:07:43.433Z,17.70
2019-04-05T15:10:11.832Z,21.43
2019-04-05T15:12:40.081Z,18.77
2019-04-05T15:15:08.350Z,16.00
2019-04-05T15:17:47.321Z,17.60
2019-04-05T15:20:10.811Z,16.40
2019-04-05T15:22:41.544Z,16.90
2019-04-05T15:25:10.417Z,19.93
2019-04-05T15:27:38.520Z,17.70
2019-04-05T15:30:08.372Z,19.23
2019-04-05T15:32:37.881Z,15.60
2019-04-05T15:35:07.515Z,16.27
2019-04-05T15:37:37.464Z,17.43
2019-04-05T15:40:07.901Z,18.37
2019-04-05T15:42:35.985Z,17.07
2019-04-05T15:45:05.617Z,16.83
2019-04-05T15:47:34.038Z,15.93
2019-04-05T15:50:02.136Z,19.03
2019-04-05T15:52:32.053Z,19.23
2019-04-05T15:55:01.754Z,18.40
2019-04-05T15:57:33.328Z,17.87
2019-04-05T16:00:03.701Z,16.30
2019-04-05T16:02:33.016Z,18.07
2019-04-05T16:05:00.631Z,15.67
2019-04-05T16:07:29.088Z,17.73
2019-04-05T16:09:57.501Z,15.30
2019-04-05T16:12:25.938Z,15.20
2019-04-05T16:14:54.361Z,15.53
2019-04-05T16:17:22.801Z,17.97
2019-04-05T16:19:50.975Z,15.10
2019-04-05T16:22:30.870Z,14.67
2019-04-05T16:24:48.879Z,18.37
2019-04-05T16:27:16.977Z,14.47
2019-04-05T16:29:45.069Z,14.00
2019-04-05T16:32:13.180Z,16.13
2019-04-05T16:34:41.278Z,17.70
2019-04-05T16:37:09.381Z,16.00
2019-04-05T16:39:37.465Z,15.93
2019-04-05T16:42:05.650Z,17.63
2019-04-05T16:44:34.057Z,16.27
2019-04-05T16:47:02.757Z,16.87
2019-04-05T16:49:31.176Z,19.20
2019-04-05T16:51:59.273Z,16.50
2019-04-05T16:54:27.374Z,17.50
2019-04-05T16:56:55.819Z,17.40
2019-04-05T16:59:23.896Z,16.50
2019-04-05T17:01:52.008Z,16.13
2019-04-05T17:04:20.084Z,17.20
2019-04-05T17:06:48.176Z,16.07
2019-04-05T17:09:16.273Z,19.87
2019-04-05T17:11:44.689Z,17.13
2019-04-05T17:14:12.769Z,16.23
2019-04-05T17:16:40.869Z,17.90
2019-04-05T17:19:08.963Z,19.67
2019-04-05T17:21:37.100Z,16.57
2019-04-05T17:24:05.177Z,16.07
2019-04-05T17:26:33.334Z,21.83
2019-04-05T17:29:01.463Z,18.17
2019-04-05T17:31:29.961Z,17.70
2019-04-05T17:33:58.377Z,21.83
2019-04-05T17:36:26.485Z,18.40
2019-04-05T17:38:54.594Z,15.73
2019-04-05T17:41:22.708Z,18.87
2019-04-05T17:43:50.833Z,17.30
2019-04-05T17:46:19.322Z,16.43
2019-04-05T17:48:51.630Z,17.23
2019-04-05T17:51:19.034Z,18.60
2019-04-05T17:53:47.156Z,17.33
2019-04-05T17:56:15.602Z,18.97
2019-04-05T17:58:44.377Z,18.30
2019-04-05T18:01:12.803Z,16.13
2019-04-05T18:03:41.545Z,17.97
2019-04-05T18:06:09.642Z,16.90
2019-04-05T18:08:37.749Z,18.87
2019-04-05T18:11:06.168Z,18.20
2019-04-05T18:13:34.598Z,18.17
2019-04-05T18:16:02.681Z,17.53
2019-04-05T18:18:31.115Z,19.57
2019-04-05T18:20:59.213Z,19.20
2019-04-05T18:23:27.317Z,15.10
2019-04-05T18:25:55.406Z,15.77
2019-04-05T18:28:23.508Z,15.53
2019-04-05T18:30:52.277Z,16.00
2019-04-05T18:33:20.709Z,15.33
2019-04-05T18:35:49.199Z,17.17
2019-04-05T18:38:17.641Z,14.80
2019-04-05T18:40:46.051Z,14.27
2019-04-05T18:43:14.145Z,14.60
2019-04-05T18:45:42.235Z,16.97
2019-04-05T18:48:10.344Z,17.70
2019-04-05T18:50:38.452Z,14.73
2019-04-05T18:53:06.560Z,15.10
2019-04-05T18:55:35.216Z,15.27
2019-04-05T18:58:03.489Z,17.60
2019-04-05T19:00:31.916Z,15.87
2019-04-05T19:03:00.354Z,16.10
2019-04-05T19:05:28.847Z,12.57
2019-04-05T19:07:56.945Z,16.80
2019-04-05T19:10:36.493Z,14.57
2019-04-05T19:12:54.922Z,14.40
2019-04-05T19:15:23.238Z,23.07
2019-04-05T19:17:51.337Z,16.03
2019-04-05T19:20:19.433Z,12.77
2019-04-05T19:22:47.544Z,14.80
2019-04-05T19:25:15.637Z,16.53
2019-04-05T19:27:44.081Z,14.67
2019-04-05T19:50:13.683Z,15.90
2019-04-05T19:52:41.811Z,15.83
2019-04-05T19:55:09.990Z,16.73
2019-04-05T19:57:38.072Z,20.47
2019-04-05T20:00:07.533Z,25.43
2019-04-05T20:02:35.951Z,17.47
2019-04-05T20:05:05.732Z,16.30
2019-04-05T20:07:33.816Z,29.17
2019-04-05T20:10:02.570Z,16.93
2019-04-05T20:12:30.959Z,16.10
2019-04-05T20:14:59.053Z,15.90
2019-04-05T20:17:27.136Z,15.73
2019-04-05T20:19:55.237Z,13.30
2019-04-05T20:22:23.338Z,14.37
2019-04-05T20:24:51.429Z,16.30
2019-04-05T20:27:19.517Z,16.30
2019-04-05T20:29:47.959Z,13.60
2019-04-05T20:32:16.044Z,18.37
2019-04-05T20:34:44.481Z,15.80
2019-04-05T20:37:12.908Z,15.37
2019-04-05T20:39:40.996Z,14.17
2019-04-05T20:42:09.089Z,16.07
2019-04-05T20:44:37.274Z,13.53
2019-04-05T20:47:05.400Z,15.10
2019-04-05T20:49:33.500Z,14.87
2019-04-05T20:52:01.586Z,13.20
2019-04-05T20:54:29.683Z,14.60
2019-04-05T20:56:57.763Z,15.97
2019-04-05T20:59:25.860Z,15.77
2019-04-05T21:01:53.953Z,14.03
2019-04-05T21:04:22.389Z,13.67
2019-04-05T21:06:50.810Z,13.73
2019-04-05T21:09:19.237Z,14.13
2019-04-05T21:11:47.758Z,14.40
2019-04-05T21:14:15.869Z,13.73
2019-04-05T21:16:43.961Z,16.80
2019-04-05T21:19:12.060Z,13.07
2019-04-05T21:21:40.146Z,15.67
2019-04-05T21:24:12.864Z,13.90
2019-04-05T21:26:40.954Z,13.50
2019-04-05T21:29:09.394Z,14.40
2019-04-05T21:31:37.801Z,15.47
2019-04-05T21:34:06.532Z,13.87
2019-04-05T21:36:34.629Z,14.17
2019-04-05T21:39:04.630Z,16.93
2019-04-05T21:41:32.732Z,14.27
2019-04-05T21:44:00.817Z,12.67
2019-04-05T21:46:48.250Z,15.00
2019-04-05T21:49:17.018Z,13.40
2019-04-05T21:51:45.100Z,12.70
2019-04-05T21:54:13.205Z,14.63
2019-04-05T21:56:41.313Z,13.03
2019-04-05T21:59:09.737Z,14.67
2019-04-05T22:01:37.845Z,14.27
2019-04-05T22:04:06.716Z,13.77
2019-04-05T22:06:34.810Z,12.73
2019-04-05T22:09:04.802Z,14.30
2019-04-05T22:11:32.900Z,14.37
2019-04-05T22:14:01.311Z,13.53
2019-04-05T22:16:29.410Z,13.50
2019-04-05T22:18:57.491Z,13.73
2019-04-05T22:21:25.589Z,14.30
2019-04-05T22:23:53.668Z,13.40
2019-04-05T22:26:21.761Z,14.57
2019-04-05T22:28:49.851Z,18.87
2019-04-05T22:31:18.236Z,13.17
2019-04-05T22:33:46.724Z,14.27
2019-04-05T22:36:15.145Z,13.33
2019-04-05T22:38:43.224Z,13.83
2019-04-05T22:41:11.661Z,13.13
2019-04-05T22:43:40.108Z,14.73
2019-04-05T22:46:08.240Z,14.30
2019-04-05T22:48:36.332Z,14.73
2019-04-05T22:51:04.424Z,14.93
2019-04-05T22:53:32.526Z,13.53
2019-04-05T22:56:00.632Z,14.50
2019-04-05T22:58:28.722Z,13.73
2019-04-05T23:00:57.168Z,15.07
2019-04-05T23:03:25.823Z,12.80
2019-04-05T23:05:54.245Z,17.60
2019-04-05T23:08:22.653Z,16.50
2019-04-05T23:10:50.754Z,13.60
2019-04-05T23:13:19.148Z,15.37
2019-04-05T23:15:47.569Z,15.90
2019-04-05T23:18:15.984Z,17.60
2019-04-05T23:20:44.409Z,15.80
2019-04-05T23:23:12.829Z,19.33
2019-04-05T23:25:41.019Z,15.27
2019-04-05T23:28:09.416Z,20.73
2019-04-05T23:30:37.863Z,24.03
2019-04-05T23:33:05.952Z,17.67
2019-04-05T23:35:34.367Z,17.90
2019-04-05T23:38:02.799Z,16.53
2019-04-05T23:40:31.204Z,16.73
2019-04-05T23:42:59.309Z,16.77
2019-04-05T23:45:27.393Z,17.57
2019-04-05T23:47:55.492Z,19.10
2019-04-05T23:50:23.580Z,17.03
2019-04-05T23:52:51.672Z,17.23
2019-04-05T23:55:20.593Z,23.07
2019-04-05T23:57:49.013Z,21.57
